Time;durP1;ratioP1;P1;durP2;ratioP2;P2;SDS_P1;SDS_P2;PMS_P1;PMS_P2;Temp;Humidity;BMP_temperature;BMP_pressure;BME280_temperature;BME280_humidity;BME280_pressure;Samples;Min_cycle;Max_cycle;Signal;HPM_P1;HPM_P2
2023/10/04 00:04:58;;;;;;;;;;;;;;;23.13;50.26;96853.63;10444302;28;2496;-56
2023/10/04 00:10:04;;;;;;;;;;;;;;;23.12;50.40;96852.06;10446545;28;1896;-54
2023/10/04 00:15:08;;;;;;;;;;;;;;;23.12;50.26;96854.69;10437185;28;1906;-56
2023/10/04 00:20:13;;;;;;;;;;;;;;;23.12;50.35;96866.06;10436782;28;2083;-54
2023/10/04 00:25:20;;;;;;;;;;;;;;;23.11;50.40;96863.69;10442975;28;1909;-55
2023/10/04 00:30:21;;;;;;;;;;;;;;;23.10;50.19;96860.22;10436303;28;1939;-56
2023/10/04 00:35:21;;;;;;;;;;;;;;;23.10;50.49;96860.22;10440391;28;2019;-55
2023/10/04 00:40:22;;;;;;;;;;;;;;;23.10;50.21;96848.88;10442394;28;4746;-55
2023/10/04 00:45:23;;;;;;;;;;;;;;;23.10;50.16;96848.88;10437564;28;1935;-55
2023/10/04 00:50:26;;;;;;;;;;;;;;;23.09;50.48;96837.50;10441262;28;2657;-55
2023/10/04 00:55:26;;;;;;;;;;;;;;;23.08;50.46;96829.84;10439043;28;2022;-55
2023/10/04 01:00:27;;;;;;;;;;;;;;;23.07;50.17;96823.75;10442078;28;1933;-56
2023/10/04 01:05:28;;;;;;;;;;;;;;;23.08;50.14;96813.97;10443157;28;1925;-56
2023/10/04 01:10:31;;;;;;;;;;;;;;;23.08;50.05;96811.31;10442559;28;1963;-55
2023/10/04 01:15:36;;;;;;;;;;;;;;;23.06;50.40;96800.97;10439743;28;2144;-56
2023/10/04 01:20:38;;;;;;;;;;;;;;;23.06;50.32;96806.28;10437062;28;1959;-56
2023/10/04 01:25:42;;;;;;;;;;;;;;;23.08;50.06;96800.75;10433564;28;1991;-54
2023/10/04 01:30:43;;;;;;;;;;;;;;;23.06;50.36;96795.69;10439244;28;1910;-56
2023/10/04 01:35:49;;;;;;;;;;;;;;;23.06;50.44;96797.56;10441149;28;2565;-55
2023/10/04 01:40:49;;;;;;;;;;;;;;;23.05;50.38;96799.41;10433301;28;4582;-56
2023/10/04 01:45:53;;;;;;;;;;;;;;;23.05;50.18;96798.63;10438010;28;1943;-56
2023/10/04 01:50:53;;;;;;;;;;;;;;;23.05;50.09;96793.31;10434286;28;2039;-56
2023/10/04 01:55:56;;;;;;;;;;;;;;;23.04;50.17;96803.09;10437294;28;1957;-55
2023/10/04 02:00:57;;;;;;;;;;;;;;;23.03;50.21;96792.78;10438228;28;1944;-56
2023/10/04 02:05:57;;;;;;;;;;;;;;;23.03;50.17;96790.94;10439364;28;2041;-55
2023/10/04 02:10:57;;;;;;;;;;;;;;;23.03;50.03;96784.84;10437375;28;1955;-54
2023/10/04 02:15:59;;;;;;;;;;;;;;;23.01;50.13;96776.41;10437634;28;1904;-55
2023/10/04 02:20:59;;;;;;;;;;;;;;;23.03;49.96;96787.50;10429384;28;2546;-53
2023/10/04 02:26:00;;;;;;;;;;;;;;;23.03;49.99;96776.94;10436364;28;1901;-56
2023/10/04 02:31:02;;;;;;;;;;;;;;;23.03;50.34;96776.94;10434637;28;2015;-55
2023/10/04 02:36:06;;;;;;;;;;;;;;;23.03;50.15;96779.56;10438269;28;1984;-56
2023/10/04 02:41:10;;;;;;;;;;;;;;;23.04;50.24;96775.88;10436074;28;4606;-56
2023/10/04 02:46:11;;;;;;;;;;;;;;;23.00;50.11;96774.81;10438604;28;2090;-55
2023/10/04 02:51:11;;;;;;;;;;;;;;;23.04;50.19;96789.09;10435569;28;1949;-55
2023/10/04 02:56:11;;;;;;;;;;;;;;;23.03;50.49;96790.16;10435031;28;2027;-54
2023/10/04 03:01:20;;;;;;;;;;;;;;;23.02;50.41;96781.41;10434168;28;1960;-56
2023/10/04 03:06:23;;;;;;;;;;;;;;;23.03;50.23;96784.84;10439580;28;2580;-56
2023/10/04 03:11:23;;;;;;;;;;;;;;;23.02;50.54;96781.41;10438029;28;1983;-55
2023/10/04 03:16:23;;;;;;;;;;;;;;;23.01;50.54;96776.41;10438469;28;1923;-55
2023/10/04 03:21:28;;;;;;;;;;;;;;;23.01;50.27;96786.97;10445313;28;1960;-56
2023/10/04 03:26:29;;;;;;;;;;;;;;;23.01;50.38;96789.63;10446718;28;1967;-56
2023/10/04 03:31:30;;;;;;;;;;;;;;;22.99;50.44;96779.31;10441878;28;1961;-56
2023/10/04 03:36:34;;;;;;;;;;;;;;;23.01;50.40;96781.69;10443385;28;1945;-57
2023/10/04 03:41:35;;;;;;;;;;;;;;;23.00;50.37;96782.75;10446007;28;4566;-56
2023/10/04 03:46:37;;;;;;;;;;;;;;;22.99;50.25;96778.50;10443928;28;1868;-56
2023/10/04 03:51:37;;;;;;;;;;;;;;;22.99;50.19;96783.81;10444171;28;2565;-56
2023/10/04 03:56:37;;;;;;;;;;;;;;;22.98;50.07;96780.34;10441117;28;1904;-56
2023/10/04 04:01:37;;;;;;;;;;;;;;;22.97;50.17;96784.06;10445686;28;1900;-56
2023/10/04 04:06:38;;;;;;;;;;;;;;;22.98;50.10;96787.53;10441753;28;2057;-56
2023/10/04 04:11:38;;;;;;;;;;;;;;;22.97;50.22;96788.56;10446135;28;1952;-57
2023/10/04 04:16:38;;;;;;;;;;;;;;;22.97;50.39;96796.50;10445542;28;1991;-56
2023/10/04 04:21:39;;;;;;;;;;;;;;;22.96;50.07;96786.97;10442567;28;2024;-56
2023/10/04 04:26:40;;;;;;;;;;;;;;;22.96;49.96;96790.41;10440484;28;2051;-57
2023/10/04 04:31:40;;;;;;;;;;;;;;;22.96;50.17;96789.59;10438380;28;1938;-55
2023/10/04 04:36:42;;;;;;;;;;;;;;;22.95;49.86;96790.69;10446118;28;2631;-55
2023/10/04 04:41:42;;;;;;;;;;;;;;;22.95;50.03;96799.41;10442641;28;4642;-56
2023/10/04 04:46:43;;;;;;;;;;;;;;;22.94;49.95;96797.00;10444180;28;1958;-56
2023/10/04 04:51:44;;;;;;;;;;;;;;;22.95;49.97;96793.31;10443702;28;1982;-56
2023/10/04 04:56:45;;;;;;;;;;;;;;;22.95;50.07;96795.97;10445691;28;1897;-57
2023/10/04 05:01:45;;;;;;;;;;;;;;;22.93;49.92;96800.72;10443266;28;2026;-57
2023/10/04 05:06:46;;;;;;;;;;;;;;;22.92;50.03;96804.41;10443605;28;2076;-54
2023/10/04 05:11:46;;;;;;;;;;;;;;;22.92;50.10;96804.41;10440190;28;1939;-56
2023/10/04 05:16:49;;;;;;;;;;;;;;;22.92;50.00;96802.56;10443186;28;1999;-56
2023/10/04 05:21:50;;;;;;;;;;;;;;;22.92;50.04;96812.34;10436105;28;2660;-55
2023/10/04 05:26:51;;;;;;;;;;;;;;;22.91;49.80;96808.13;10440112;28;1848;-54
2023/10/04 05:31:51;;;;;;;;;;;;;;;22.90;49.90;96806.53;10442291;28;1902;-55
2023/10/04 05:36:52;;;;;;;;;;;;;;;22.90;49.77;96822.38;10442286;28;1959;-52
2023/10/04 05:41:53;;;;;;;;;;;;;;;22.90;49.94;96825.03;10438842;28;4575;-55
2023/10/04 05:46:54;;;;;;;;;;;;;;;22.89;49.96;96826.09;10439763;28;2009;-55
2023/10/04 05:51:55;;;;;;;;;;;;;;;22.90;49.69;96835.59;10436395;28;1997;-56
2023/10/04 05:56:55;;;;;;;;;;;;;;;22.89;49.76;96844.59;10441356;28;1912;-56
2023/10/04 06:01:57;;;;;;;;;;;;;;;22.88;49.91;96840.38;10435206;28;1895;-56
2023/10/04 06:06:58;;;;;;;;;;;;;;;22.89;49.79;96855.19;10445157;28;2516;-55
2023/10/04 06:11:58;;;;;;;;;;;;;;;22.88;49.53;96857.03;10437839;28;1993;-55
2023/10/04 06:16:59;;;;;;;;;;;;;;;22.88;49.81;96856.22;10439415;28;1925;-57
2023/10/04 06:21:59;;;;;;;;;;;;;;;22.87;49.62;96860.75;10439168;28;1959;-57
2023/10/04 06:26:59;;;;;;;;;;;;;;;22.87;49.79;96866.03;10432777;28;1979;-56
2023/10/04 06:31:59;;;;;;;;;;;;;;;22.87;49.77;96873.16;10433166;28;1914;-57
2023/10/04 06:37:00;;;;;;;;;;;;;;;22.87;49.51;96875.81;10432948;28;1945;-56
2023/10/04 06:42:00;;;;;;;;;;;;;;;22.86;49.77;96880.28;10437493;28;4638;-57
2023/10/04 06:47:00;;;;;;;;;;;;;;;22.85;49.76;96877.91;10430961;28;2034;-57
2023/10/04 06:52:00;;;;;;;;;;;;;;;22.88;49.64;96887.94;10437252;28;2655;-57
2023/10/04 06:57:01;;;;;;;;;;;;;;;22.87;49.59;96891.66;10439438;28;1976;-56
2023/10/04 07:02:02;;;;;;;;;;;;;;;22.86;49.64;96892.72;10442741;28;1912;-57
2023/10/04 07:07:02;;;;;;;;;;;;;;;22.86;49.59;96892.72;10440215;28;1904;-55
2023/10/04 07:12:04;;;;;;;;;;;;;;;22.87;49.68;96891.66;10446650;28;2299;-56
2023/10/04 07:17:04;;;;;;;;;;;;;;;22.87;49.65;96891.66;10444112;28;1930;-56
2023/10/04 07:22:04;;;;;;;;;;;;;;;22.85;49.62;96899.06;10441453;28;2109;-56
2023/10/04 07:27:04;;;;;;;;;;;;;;;22.85;49.54;96891.13;10446723;28;1932;-55
2023/10/04 07:32:05;;;;;;;;;;;;;;;22.86;49.80;96900.63;10445210;28;1941;-57
2023/10/04 07:37:06;;;;;;;;;;;;;;;22.85;49.65;96904.34;10448000;28;2534;-57
2023/10/04 07:42:06;;;;;;;;;;;;;;;22.85;49.66;96899.88;10444087;28;4676;-56
2023/10/04 07:47:06;;;;;;;;;;;;;;;22.85;49.71;96899.88;10443936;28;1783;-57
2023/10/04 07:52:07;;;;;;;;;;;;;;;22.86;49.39;96905.94;10443033;28;1910;-56
2023/10/04 07:57:07;;;;;;;;;;;;;;;22.86;49.45;96898.00;10445470;28;1873;-57
2023/10/04 08:02:11;;;;;;;;;;;;;;;22.87;49.71;96891.66;10448170;28;1757;-56
2023/10/04 08:07:14;;;;;;;;;;;;;;;22.86;49.63;96890.88;10442182;28;1922;-56
2023/10/04 08:12:14;;;;;;;;;;;;;;;22.86;49.51;96884.78;10442002;28;1992;-57
2023/10/04 08:17:16;;;;;;;;;;;;;;;22.86;49.66;96890.88;10442902;28;1928;-55
2023/10/04 08:22:17;;;;;;;;;;;;;;;22.87;49.74;96889.03;10453343;28;2535;-57
2023/10/04 08:27:18;;;;;;;;;;;;;;;22.86;49.67;96879.50;10444416;28;1904;-56
2023/10/04 08:32:18;;;;;;;;;;;;;;;22.87;49.73;96875.81;10442453;28;1977;-55
2023/10/04 08:37:19;;;;;;;;;;;;;;;22.87;49.50;96886.38;10442648;28;1882;-54
2023/10/04 08:42:20;;;;;;;;;;;;;;;22.86;49.47;96879.50;10439187;28;4540;-55
2023/10/04 08:47:22;;;;;;;;;;;;;;;22.86;49.57;96876.84;10443121;28;1902;-55
2023/10/04 08:52:35;;;;;;;;;;;;;;;22.87;49.50;96876.59;10441311;28;1922;-56
2023/10/04 08:57:38;;;;;;;;;;;;;;;22.86;49.38;96875.00;10433209;28;1905;-56
2023/10/04 09:02:42;;;;;;;;;;;;;;;22.86;49.45;96872.34;10437674;28;1842;-56
2023/10/04 09:07:43;;;;;;;;;;;;;;;22.87;49.57;96873.16;10433754;28;2520;-55
2023/10/04 09:12:44;;;;;;;;;;;;;;;22.87;49.50;96867.88;10438713;28;1914;-56
2023/10/04 09:17:46;;;;;;;;;;;;;;;22.86;49.43;96869.72;10435160;28;1973;-56
2023/10/04 09:22:47;;;;;;;;;;;;;;;22.88;49.65;96874.72;10445036;28;1953;-56
2023/10/04 09:27:56;;;;;;;;;;;;;;;22.87;49.61;96870.50;10435196;28;1838;-56
2023/10/04 09:32:56;;;;;;;;;;;;;;;22.87;49.66;96867.88;10444720;28;1970;-52
2023/10/04 09:37:57;;;;;;;;;;;;;;;22.87;49.82;96859.94;10437653;28;1870;-55
2023/10/04 09:42:57;;;;;;;;;;;;;;;22.87;49.88;96855.44;10436819;28;4682;-54
2023/10/04 09:48:03;;;;;;;;;;;;;;;22.88;49.56;96853.56;10442063;28;1902;-57
2023/10/04 09:53:03;;;;;;;;;;;;;;;22.88;49.48;96850.94;10439191;28;2688;-55
2023/10/04 09:58:04;;;;;;;;;;;;;;;22.88;49.60;96846.44;10441677;28;1834;-56
2023/10/04 10:03:04;;;;;;;;;;;;;;;22.88;49.79;96841.16;10439383;28;1886;-57
2023/10/04 10:08:04;;;;;;;;;;;;;;;22.89;49.58;96831.38;10440821;28;1870;-54
2023/10/04 10:13:05;;;;;;;;;;;;;;;22.88;49.62;96825.31;10421039;28;1910;-54
2023/10/04 10:18:07;;;;;;;;;;;;;;;22.89;49.29;96826.91;10437570;28;1893;-54
2023/10/04 10:23:07;;;;;;;;;;;;;;;22.91;49.46;96834.56;10439658;28;1914;-54
2023/10/04 10:28:18;;;;;;;;;;;;;;;22.91;49.20;96824.00;10437075;28;1958;-55
2023/10/04 10:33:21;;;;;;;;;;;;;;;22.92;48.95;96829.00;10439287;28;1972;-56
2023/10/04 10:38:39;;;;;;;;;;;;;;;22.93;48.99;96814.75;10434928;28;2817;-56
2023/10/04 10:43:58;;;;;;;;;;;;;;;22.93;49.24;96806.81;10436561;28;1850;-56
2023/10/04 10:48:58;;;;;;;;;;;;;;;22.92;49.25;96796.47;10437426;28;1846;-55
2023/10/04 10:53:58;;;;;;;;;;;;;;;22.94;49.18;96795.16;10438988;28;1987;-56
2023/10/04 10:58:58;;;;;;;;;;;;;;;22.96;48.89;96784.31;10435636;28;1767;-55
2023/10/04 11:03:59;;;;;;;;;;;;;;;22.99;48.95;96789.09;10436359;28;1851;-55
2023/10/04 11:09:00;;;;;;;;;;;;;;;23.03;48.99;96790.16;10438768;28;1869;-56
2023/10/04 11:14:05;;;;;;;;;;;;;;;23.06;49.28;96795.69;10434750;28;1984;-55
2023/10/04 11:19:05;;;;;;;;;;;;;;;23.08;49.81;96788.28;10435979;28;1609;-56
2023/10/04 11:24:05;;;;;;;;;;;;;;;23.10;50.04;96785.41;10437090;28;2542;-56
2023/10/04 11:29:06;;;;;;;;;;;;;;;23.12;49.67;96776.13;10436581;28;1542;-55
2023/10/04 11:34:06;;;;;;;;;;;;;;;23.14;49.80;96762.66;10434417;28;1913;-56
2023/10/04 11:39:13;;;;;;;;;;;;;;;23.17;49.90;96760.25;10438959;28;2047;-55
2023/10/04 11:44:13;;;;;;;;;;;;;;;23.20;49.82;96754.47;10442241;28;4771;-55
2023/10/04 11:49:14;;;;;;;;;;;;;;;23.21;50.06;96744.66;10444677;28;1757;-56
2023/10/04 11:54:14;;;;;;;;;;;;;;;23.21;49.55;96739.34;10445878;28;2006;-55
2023/10/04 11:59:15;;;;;;;;;;;;;;;23.22;49.68;96735.66;10443490;28;1733;-56
2023/10/04 12:04:16;;;;;;;;;;;;;;;23.24;49.83;96738.84;10441696;28;1766;-56
2023/10/04 12:09:16;;;;;;;;;;;;;;;23.23;49.78;96732.75;10440050;28;2734;-56
2023/10/04 12:14:16;;;;;;;;;;;;;;;23.22;49.49;96730.38;10445524;28;1921;-55
2023/10/04 12:19:17;;;;;;;;;;;;;;;23.22;49.89;96733.81;10444296;28;1851;-55
2023/10/04 12:24:17;;;;;;;;;;;;;;;23.23;49.83;96724.00;10440805;28;2004;-54
2023/10/04 12:29:17;;;;;;;;;;;;;;;23.23;49.81;96722.16;10442330;28;1868;-55
2023/10/04 12:34:17;;;;;;;;;;;;;;;23.24;49.73;96723.78;10441661;28;2258;-53
2023/10/04 12:39:19;;;;;;;;;;;;;;;23.24;49.48;96722.97;10440116;28;1979;-53
2023/10/04 12:44:19;;;;;;;;;;;;;;;23.24;49.91;96726.41;10442031;28;4571;-57
2023/10/04 12:49:19;;;;;;;;;;;;;;;23.24;49.75;96723.78;10440941;28;1927;-55
2023/10/04 12:54:24;;;;;;;;;;;;;;;23.25;49.73;96720.03;10442586;28;1905;-55
2023/10/04 12:59:24;;;;;;;;;;;;;;;23.26;49.74;96726.94;10440476;28;1925;-56
2023/10/04 13:04:24;;;;;;;;;;;;;;;23.27;49.82;96717.13;10436814;28;1863;-57
2023/10/04 13:09:27;;;;;;;;;;;;;;;23.27;49.57;96722.41;10443612;28;2774;-57
2023/10/04 13:14:27;;;;;;;;;;;;;;;23.26;49.92;96729.59;10441224;28;1963;-56
2023/10/04 13:19:28;;;;;;;;;;;;;;;23.26;49.76;96724.28;10442659;28;1846;-56
2023/10/04 13:24:31;;;;;;;;;;;;;;;23.27;49.79;96719.78;10439706;28;2268;-57
2023/10/04 13:29:31;;;;;;;;;;;;;;;23.27;49.72;96715.28;10438937;28;1922;-56
2023/10/04 13:34:32;;;;;;;;;;;;;;;23.27;49.82;96711.84;10434263;28;2169;-55
2023/10/04 13:39:33;;;;;;;;;;;;;;;23.28;49.74;96708.94;10439043;28;1834;-56
2023/10/04 13:44:33;;;;;;;;;;;;;;;23.27;49.83;96696.75;10437203;28;4682;-55
2023/10/04 13:49:35;;;;;;;;;;;;;;;23.28;49.47;96694.91;10436064;28;1921;-55
2023/10/04 13:54:36;;;;;;;;;;;;;;;23.28;49.53;96700.22;10434744;28;2694;-54
2023/10/04 13:59:38;;;;;;;;;;;;;;;23.28;49.36;96694.91;10438967;28;1993;-56
2023/10/04 14:04:39;;;;;;;;;;;;;;;23.29;49.65;96686.69;10437956;28;1807;-56
2023/10/04 14:09:39;;;;;;;;;;;;;;;23.29;49.52;96688.56;10437942;28;2047;-54
2023/10/04 14:14:39;;;;;;;;;;;;;;;23.28;49.55;96686.97;10433764;28;2448;-54
2023/10/04 14:19:40;;;;;;;;;;;;;;;23.29;49.34;96686.69;10437169;28;1916;-55
2023/10/04 14:24:42;;;;;;;;;;;;;;;23.28;49.70;96673.75;10433581;28;2054;-55
2023/10/04 14:29:42;;;;;;;;;;;;;;;23.28;49.38;96682.50;10435207;28;1838;-55
2023/10/04 14:34:42;;;;;;;;;;;;;;;23.27;49.73;96683.53;10436578;28;1913;-55
2023/10/04 14:39:43;;;;;;;;;;;;;;;23.28;49.72;96692.28;10432648;28;2983;-56
2023/10/04 14:44:44;;;;;;;;;;;;;;;23.27;49.82;96685.38;10434576;28;4575;-55
2023/10/04 14:49:45;;;;;;;;;;;;;;;23.27;49.67;96680.88;10437954;28;2025;-56
2023/10/04 14:54:45;;;;;;;;;;;;;;;23.27;49.45;96680.88;10435587;28;1969;-55
2023/10/04 14:59:47;;;;;;;;;;;;;;;23.26;49.83;96673.22;10434021;28;1851;-55
2023/10/04 15:04:48;;;;;;;;;;;;;;;23.26;50.11;96684.63;10436262;28;1862;-53
2023/10/04 15:09:49;;;;;;;;;;;;;;;23.27;50.00;96685.38;10435959;28;1898;-56
2023/10/04 15:14:49;;;;;;;;;;;;;;;23.26;50.04;96684.63;10438131;28;1981;-55
2023/10/04 15:19:50;;;;;;;;;;;;;;;23.26;50.21;96683.81;10444641;28;1890;-53
2023/10/04 15:24:52;;;;;;;;;;;;;;;23.26;49.75;96689.09;10446490;28;1993;-56
2023/10/04 15:29:53;;;;;;;;;;;;;;;23.26;49.69;96686.47;10439661;28;2001;-55
2023/10/04 15:34:53;;;;;;;;;;;;;;;23.27;49.39;96682.75;10439985;28;1921;-52
2023/10/04 15:39:53;;;;;;;;;;;;;;;23.28;49.90;96676.41;10442771;28;2544;-53
2023/10/04 15:44:54;;;;;;;;;;;;;;;23.27;49.96;96659.72;10445964;28;4842;-54
2023/10/04 15:49:54;;;;;;;;;;;;;;;23.27;49.66;96662.38;10446005;28;1487;-55
2023/10/04 15:54:56;;;;;;;;;;;;;;;23.29;49.91;96651.50;10444744;28;1941;-56
2023/10/04 15:59:56;;;;;;;;;;;;;;;23.30;50.05;96639.88;10443582;28;1518;-57
2023/10/04 16:04:56;;;;;;;;;;;;;;;23.29;50.13;96628.50;10447636;28;1493;-57
2023/10/04 16:09:57;;;;;;;;;;;;;;;23.31;49.93;96622.94;10447469;28;1905;-56
2023/10/04 16:14:58;;;;;;;;;;;;;;;23.30;50.37;96626.66;10441931;28;1975;-57
2023/10/04 16:19:58;;;;;;;;;;;;;;;23.31;50.20;96628.22;10442241;28;1567;-56
2023/10/04 16:25:00;;;;;;;;;;;;;;;23.30;50.15;96629.31;10445203;28;1523;-57
2023/10/04 16:30:00;;;;;;;;;;;;;;;23.30;50.35;96631.94;10440590;28;1850;-55
2023/10/04 16:35:01;;;;;;;;;;;;;;;23.28;50.27;96634.88;10444199;28;1967;-57
2023/10/04 16:40:06;;;;;;;;;;;;;;;23.27;50.09;96632.47;10441426;28;1913;-56
2023/10/04 16:45:06;;;;;;;;;;;;;;;23.27;50.25;96651.78;10444673;28;1836;-57
2023/10/04 16:50:07;;;;;;;;;;;;;;;23.21;48.85;96660.81;10437160;28;1985;-55
2023/10/04 16:55:10;;;;;;;;;;;;;;;23.20;49.83;96674.31;10437392;28;2643;-55
2023/10/04 17:00:12;;;;;;;;;;;;;;;23.21;49.56;96662.66;10441844;28;1878;-56
2023/10/04 17:05:14;;;;;;;;;;;;;;;23.21;49.46;96665.28;10443626;28;1897;-55
2023/10/04 17:10:15;;;;;;;;;;;;;;;23.21;49.40;96676.69;10440032;28;2042;-57
2023/10/04 17:15:18;;;;;;;;;;;;;;;23.20;49.34;96683.03;10438867;28;1970;-56
2023/10/04 17:20:19;;;;;;;;;;;;;;;23.22;49.15;96685.41;10440171;28;1974;-57
2023/10/04 17:25:19;;;;;;;;;;;;;;;23.24;49.35;96688.56;10443561;28;1914;-57
2023/10/04 17:30:20;;;;;;;;;;;;;;;23.26;49.50;96684.63;10433223;28;1822;-56
2023/10/04 17:35:20;;;;;;;;;;;;;;;23.27;49.29;96680.88;10442194;28;1982;-56
2023/10/04 17:40:20;;;;;;;;;;;;;;;23.32;49.39;96674.84;10441260;28;4559;-56
2023/10/04 17:45:20;;;;;;;;;;;;;;;23.31;49.48;96671.34;10441023;28;1854;-56
2023/10/04 17:50:21;;;;;;;;;;;;;;;23.32;49.39;96670.34;10430741;28;1858;-55
2023/10/04 17:55:21;;;;;;;;;;;;;;;23.33;49.33;96676.41;10434923;28;1949;-57
2023/10/04 18:00:21;;;;;;;;;;;;;;;23.32;49.18;96669.53;10442483;28;1874;-58
2023/10/04 18:05:21;;;;;;;;;;;;;;;23.30;49.20;96668.97;10437154;28;1890;-58
2023/10/04 18:10:23;;;;;;;;;;;;;;;23.29;49.29;96664.75;10439931;28;1910;-57
2023/10/04 18:15:23;;;;;;;;;;;;;;;23.26;49.24;96670.59;10437619;28;1939;-59
2023/10/04 18:20:24;;;;;;;;;;;;;;;23.25;49.11;96667.13;10435032;28;1908;-54
2023/10/04 18:25:24;;;;;;;;;;;;;;;23.24;49.66;96667.41;10438720;28;2558;-53
2023/10/04 18:30:24;;;;;;;;;;;;;;;23.24;49.60;96680.63;10437912;28;1843;-56
2023/10/04 18:35:24;;;;;;;;;;;;;;;23.24;49.94;96683.28;10437819;28;1964;-56
2023/10/04 18:40:26;;;;;;;;;;;;;;;23.22;49.77;96683.56;10438649;28;4575;-57
2023/10/04 18:45:26;;;;;;;;;;;;;;;23.21;49.75;96684.59;10439922;28;1756;-56
2023/10/04 18:50:28;;;;;;;;;;;;;;;23.21;49.82;96692.53;10434524;28;1807;-56
2023/10/04 18:55:28;;;;;;;;;;;;;;;23.21;49.97;96712.91;10436111;28;2087;-58
2023/10/04 19:00:29;;;;;;;;;;;;;;;23.20;50.11;96701.56;10433988;28;1812;-56
2023/10/04 19:05:32;;;;;;;;;;;;;;;23.19;50.12;96699.16;10436488;28;1768;-57
2023/10/04 19:10:32;;;;;;;;;;;;;;;23.19;49.94;96704.44;10435296;28;2662;-57
2023/10/04 19:15:33;;;;;;;;;;;;;;;23.18;50.03;96711.59;10433753;28;2015;-56
2023/10/04 19:20:33;;;;;;;;;;;;;;;23.18;49.99;96718.75;10437863;28;1826;-56
2023/10/04 19:25:35;;;;;;;;;;;;;;;23.16;49.87;96720.88;10437013;28;1829;-56
2023/10/04 19:30:36;;;;;;;;;;;;;;;23.16;50.08;96718.22;10434783;28;1908;-57
2023/10/04 19:35:37;;;;;;;;;;;;;;;23.15;50.13;96711.34;10437451;28;1959;-56
2023/10/04 19:40:37;;;;;;;;;;;;;;;23.12;50.00;96704.72;10419423;28;4547;-54
2023/10/04 19:45:37;;;;;;;;;;;;;;;23.13;49.97;96716.91;10436477;28;2071;-56
2023/10/04 19:50:38;;;;;;;;;;;;;;;23.12;49.94;96706.59;10436694;28;1942;-57
2023/10/04 19:55:38;;;;;;;;;;;;;;;23.12;49.63;96711.88;10433644;28;2695;-56
2023/10/04 20:00:42;;;;;;;;;;;;;;;23.12;49.90;96709.22;10437545;28;1929;-57
2023/10/04 20:05:42;;;;;;;;;;;;;;;23.10;49.97;96703.41;10437612;28;1949;-57
2023/10/04 20:10:44;;;;;;;;;;;;;;;23.10;49.62;96688.31;10441783;28;1993;-57
2023/10/04 20:15:46;;;;;;;;;;;;;;;23.08;49.70;96682.50;10438969;28;2029;-55
2023/10/04 20:20:46;;;;;;;;;;;;;;;23.08;49.70;96681.72;10440030;28;2116;-54
2023/10/04 20:25:47;;;;;;;;;;;;;;;23.08;49.85;96679.09;10442596;28;1974;-55
2023/10/04 20:30:48;;;;;;;;;;;;;;;23.07;49.58;96677.50;10442488;28;2007;-57
2023/10/04 20:35:50;;;;;;;;;;;;;;;23.05;49.59;96685.69;10438760;28;1989;-57
2023/10/04 20:40:50;;;;;;;;;;;;;;;23.06;49.69;96702.38;10439589;28;4535;-57
2023/10/04 20:45:51;;;;;;;;;;;;;;;23.05;49.50;96682.25;10441615;28;2060;-57
2023/10/04 20:50:51;;;;;;;;;;;;;;;23.04;49.54;96667.47;10440077;28;1967;-56
2023/10/04 20:55:53;;;;;;;;;;;;;;;23.04;49.71;96670.09;10439202;28;2078;-54
2023/10/04 21:00:54;;;;;;;;;;;;;;;23.03;49.52;96663.22;10437367;28;2206;-55
2023/10/04 21:05:54;;;;;;;;;;;;;;;23.01;49.53;96660.06;10435831;28;1932;-57
2023/10/04 21:10:54;;;;;;;;;;;;;;;23.01;49.34;96660.84;10442086;28;1951;-58
2023/10/04 21:15:54;;;;;;;;;;;;;;;23.00;49.49;96659.25;10442962;28;2162;-57
2023/10/04 21:20:55;;;;;;;;;;;;;;;23.00;49.06;96658.47;10445680;28;1921;-57
2023/10/04 21:25:55;;;;;;;;;;;;;;;22.99;49.19;96646.31;10441992;28;1928;-56
2023/10/04 21:31:02;;;;;;;;;;;;;;;22.99;49.57;96648.94;10437011;28;2521;-56
2023/10/04 21:36:07;;;;;;;;;;;;;;;22.99;49.28;96646.31;10425341;28;2360;-56
2023/10/04 21:41:08;;;;;;;;;;;;;;;22.99;49.35;96641.00;10436322;28;4363;-56
2023/10/04 21:46:08;;;;;;;;;;;;;;;22.98;49.08;96644.72;10439569;28;1977;-57
2023/10/04 21:51:14;;;;;;;;;;;;;;;22.97;49.21;96641.28;10440882;28;1971;-57
2023/10/04 21:56:14;;;;;;;;;;;;;;;22.95;49.21;96635.47;10441687;28;1968;-57
2023/10/04 22:01:17;;;;;;;;;;;;;;;22.96;49.38;96641.53;10439298;28;1983;-57
2023/10/04 22:06:17;;;;;;;;;;;;;;;22.96;49.36;96641.53;10442818;28;1963;-58
2023/10/04 22:11:18;;;;;;;;;;;;;;;22.95;49.18;96634.69;10441951;28;1932;-57
2023/10/04 22:16:20;;;;;;;;;;;;;;;22.96;49.38;96625.66;10438292;28;2539;-57
2023/10/04 22:21:20;;;;;;;;;;;;;;;22.94;49.06;96625.94;10437538;28;1889;-56
2023/10/04 22:26:20;;;;;;;;;;;;;;;22.94;49.14;96625.16;10434636;28;1966;-57
2023/10/04 22:31:21;;;;;;;;;;;;;;;22.93;49.28;96615.66;10438744;28;1968;-57
2023/10/04 22:36:21;;;;;;;;;;;;;;;22.92;49.11;96604.28;10432386;28;1972;-57
2023/10/04 22:41:23;;;;;;;;;;;;;;;22.92;48.92;96601.63;10440526;28;4489;-55
2023/10/04 22:46:24;;;;;;;;;;;;;;;22.91;48.99;96607.19;10436688;28;1978;-56
2023/10/04 22:51:25;;;;;;;;;;;;;;;22.92;49.01;96608.75;10437116;28;1927;-56
2023/10/04 22:56:25;;;;;;;;;;;;;;;22.91;49.23;96612.47;10432680;28;2017;-54
2023/10/04 23:01:26;;;;;;;;;;;;;;;22.91;48.99;96612.47;10436485;28;2923;-56
2023/10/04 23:06:26;;;;;;;;;;;;;;;22.89;49.07;96604.81;10440871;28;1888;-55
2023/10/04 23:11:28;;;;;;;;;;;;;;;22.89;49.17;96598.72;10439811;28;2009;-55
2023/10/04 23:16:28;;;;;;;;;;;;;;;22.89;48.94;96598.72;10436682;28;1974;-55
2023/10/04 23:21:31;;;;;;;;;;;;;;;22.89;48.99;96609.31;10438594;28;1994;-56
2023/10/04 23:26:31;;;;;;;;;;;;;;;22.88;48.85;96607.72;10441689;28;2036;-56
2023/10/04 23:31:36;;;;;;;;;;;;;;;22.87;48.76;96587.63;10435114;28;2016;-56
2023/10/04 23:36:40;;;;;;;;;;;;;;;22.87;48.88;96603.50;10436397;28;1998;-54
2023/10/04 23:41:43;;;;;;;;;;;;;;;22.86;48.94;96601.91;10447686;28;4636;-57
2023/10/04 23:46:43;;;;;;;;;;;;;;;22.85;48.63;96600.34;10442015;28;2647;-55
2023/10/04 23:51:52;;;;;;;;;;;;;;;22.85;48.93;96587.13;10440666;28;1835;-56
